Time;durP1;ratioP1;P1;durP2;ratioP2;P2;SDS_P1;SDS_P2;PMS_P1;PMS_P2;Temp;Humidity;BMP_temperature;BMP_pressure;BME280_temperature;BME280_humidity;BME280_pressure;Samples;Min_cycle;Max_cycle;Signal;HPM_P1;HPM_P2
2021/10/03 00:00:00;;;;;;;2.55;1.90;;;;;;;;;;5001683;28;20206;-83
2021/10/03 00:02:29;;;;;;;3.80;2.38;;;;;;;;;;4998836;28;20215;-80
2021/10/03 00:04:56;;;;;;;3.30;2.15;;;;;;;;;;5013321;28;20660;-81
2021/10/03 00:07:23;;;;;;;2.50;2.30;;;;;;;;;;5000992;28;20198;-80
2021/10/03 00:09:50;;;;;;;1.73;1.63;;;;;;;;;;4998126;28;20233;-83
2021/10/03 00:12:16;;;;;;;2.88;1.80;;;;;;;;;;5002633;28;20194;-85
2021/10/03 00:14:42;;;;;;;5.03;2.10;;;;;;;;;;5000121;28;20210;-85
2021/10/03 00:17:08;;;;;;;5.78;2.35;;;;;;;;;;4994240;28;20592;-82
2021/10/03 00:19:35;;;;;;;9.10;2.43;;;;;;;;;;5001245;28;20199;-79
2021/10/03 00:22:01;;;;;;;2.30;2.13;;;;;;;;;;4995361;28;20840;-81
2021/10/03 00:24:27;;;;;;;6.80;2.80;;;;;;;;;;5001632;28;20198;-80
2021/10/03 00:26:53;;;;;;;4.90;2.50;;;;;;;;;;4998058;28;20687;-83
2021/10/03 00:29:19;;;;;;;4.80;2.47;;;;;;;;;;5013259;28;20442;-79
2021/10/03 00:31:45;;;;;;;4.25;2.40;;;;;;;;;;5002761;28;20247;-79
2021/10/03 00:34:11;;;;;;;3.75;2.70;;;;;;;;;;5000172;28;20179;-81
2021/10/03 00:36:37;;;;;;;4.20;2.70;;;;;;;;;;4997999;28;20193;-84
2021/10/03 00:39:03;;;;;;;4.80;2.80;;;;;;;;;;4997044;28;20439;-79
2021/10/03 00:41:29;;;;;;;4.60;2.50;;;;;;;;;;5000662;28;20481;-79
2021/10/03 00:43:55;;;;;;;3.22;2.65;;;;;;;;;;4995730;28;20196;-80
2021/10/03 00:46:21;;;;;;;5.35;2.75;;;;;;;;;;5000017;28;20368;-80
2021/10/03 00:48:48;;;;;;;3.28;2.55;;;;;;;;;;4994984;28;20184;-79
2021/10/03 00:51:14;;;;;;;3.55;2.80;;;;;;;;;;4992963;28;20200;-79
2021/10/03 00:53:40;;;;;;;4.93;3.05;;;;;;;;;;5001359;28;20195;-80
2021/10/03 00:56:07;;;;;;;4.35;2.38;;;;;;;;;;4998471;28;20292;-85
2021/10/03 00:58:33;;;;;;;3.60;2.20;;;;;;;;;;5000723;28;20183;-79
2021/10/03 01:01:01;;;;;;;3.92;3.05;;;;;;;;;;5010068;28;20238;-83
2021/10/03 01:03:27;;;;;;;3.90;3.05;;;;;;;;;;4999795;28;20267;-80
2021/10/03 01:05:53;;;;;;;4.72;2.53;;;;;;;;;;4995402;28;20189;-79
2021/10/03 01:08:19;;;;;;;4.07;3.00;;;;;;;;;;5001275;28;20183;-81
2021/10/03 01:10:45;;;;;;;5.30;2.77;;;;;;;;;;4996633;28;20507;-82
2021/10/03 01:13:12;;;;;;;4.40;3.42;;;;;;;;;;4999374;28;20919;-81
2021/10/03 01:15:40;;;;;;;6.40;2.75;;;;;;;;;;4997555;28;20204;-81
2021/10/03 01:18:06;;;;;;;7.38;2.70;;;;;;;;;;4998500;28;20594;-80
2021/10/03 01:20:33;;;;;;;4.80;3.00;;;;;;;;;;5000464;28;20243;-80
2021/10/03 01:23:03;;;;;;;5.70;3.10;;;;;;;;;;4997861;28;20628;-80
2021/10/03 01:25:30;;;;;;;5.22;2.95;;;;;;;;;;4999960;28;20183;-80
2021/10/03 01:27:56;;;;;;;5.47;3.20;;;;;;;;;;4996528;28;20656;-85
2021/10/03 01:30:22;;;;;;;5.63;3.10;;;;;;;;;;5002214;28;20278;-80
2021/10/03 01:32:48;;;;;;;3.77;3.00;;;;;;;;;;4995129;28;20184;-80
2021/10/03 01:35:14;;;;;;;3.08;2.80;;;;;;;;;;4997665;28;20447;-81
2021/10/03 01:37:41;;;;;;;7.60;2.80;;;;;;;;;;5005984;28;20199;-80
2021/10/03 01:40:09;;;;;;;3.55;3.17;;;;;;;;;;4998142;28;20489;-82
2021/10/03 01:42:35;;;;;;;5.30;3.10;;;;;;;;;;4995614;28;20249;-80
2021/10/03 01:45:01;;;;;;;6.93;3.28;;;;;;;;;;4997090;28;20180;-80
2021/10/03 01:47:27;;;;;;;7.90;3.28;;;;;;;;;;4990878;28;20182;-81
2021/10/03 01:49:53;;;;;;;3.22;2.83;;;;;;;;;;5007491;28;20334;-80
2021/10/03 01:52:19;;;;;;;7.50;3.20;;;;;;;;;;4999262;28;20742;-81
2021/10/03 01:54:45;;;;;;;4.60;3.23;;;;;;;;;;4998600;28;20433;-80
2021/10/03 01:57:11;;;;;;;5.18;3.55;;;;;;;;;;4997461;28;20730;-80
2021/10/03 01:59:39;;;;;;;5.83;3.70;;;;;;;;;;5001264;28;20453;-83
2021/10/03 02:02:05;;;;;;;4.57;3.22;;;;;;;;;;4996849;28;20948;-80
2021/10/03 02:04:31;;;;;;;5.50;3.45;;;;;;;;;;5001124;28;20647;-80
2021/10/03 02:06:58;;;;;;;6.82;3.28;;;;;;;;;;4992220;28;20187;-80
2021/10/03 02:09:25;;;;;;;5.18;3.25;;;;;;;;;;5002233;28;20191;-80
2021/10/03 02:11:53;;;;;;;4.97;3.95;;;;;;;;;;4996878;28;20210;-80
2021/10/03 02:14:20;;;;;;;8.82;3.60;;;;;;;;;;5000777;28;20234;-81
2021/10/03 02:16:46;;;;;;;12.02;3.70;;;;;;;;;;4999502;28;20222;-81
2021/10/03 02:19:12;;;;;;;5.20;3.30;;;;;;;;;;5001221;28;20217;-86
2021/10/03 02:21:39;;;;;;;3.50;3.20;;;;;;;;;;5019940;28;20481;-81
2021/10/03 02:24:06;;;;;;;5.85;3.28;;;;;;;;;;5003957;28;20221;-83
2021/10/03 02:26:33;;;;;;;5.00;3.70;;;;;;;;;;4993325;28;20183;-81
2021/10/03 02:28:59;;;;;;;5.05;3.88;;;;;;;;;;5001378;28;20217;-81
2021/10/03 02:31:25;;;;;;;5.25;3.58;;;;;;;;;;5002105;28;20182;-81
2021/10/03 02:33:51;;;;;;;5.60;3.83;;;;;;;;;;5002584;28;20194;-82
2021/10/03 02:36:19;;;;;;;4.78;3.45;;;;;;;;;;4999978;28;20450;-82
2021/10/03 02:38:45;;;;;;;5.20;3.47;;;;;;;;;;5002682;28;20187;-83
2021/10/03 02:41:11;;;;;;;5.43;3.50;;;;;;;;;;5002208;28;20215;-81
2021/10/03 02:43:39;;;;;;;3.97;3.60;;;;;;;;;;4999240;28;20183;-81
2021/10/03 02:46:06;;;;;;;5.00;4.15;;;;;;;;;;5001262;28;20182;-80
2021/10/03 02:48:34;;;;;;;5.38;4.10;;;;;;;;;;4999543;28;20184;-83
2021/10/03 02:51:00;;;;;;;8.40;3.83;;;;;;;;;;5000390;28;20231;-81
2021/10/03 02:53:26;;;;;;;4.05;3.40;;;;;;;;;;4998704;28;20688;-81
2021/10/03 02:55:53;;;;;;;9.38;4.20;;;;;;;;;;5003439;28;20187;-81
2021/10/03 02:58:19;;;;;;;6.05;3.85;;;;;;;;;;5003025;28;20274;-86
2021/10/03 03:00:46;;;;;;;4.70;3.65;;;;;;;;;;5002016;28;20214;-79
2021/10/03 03:03:12;;;;;;;4.55;4.05;;;;;;;;;;4999803;28;20184;-80
2021/10/03 03:05:38;;;;;;;5.93;3.78;;;;;;;;;;5003506;28;20305;-81
2021/10/03 03:08:05;;;;;;;5.80;3.53;;;;;;;;;;5000460;28;20175;-83
2021/10/03 03:10:31;;;;;;;5.10;4.32;;;;;;;;;;5002206;28;20175;-83
2021/10/03 03:12:57;;;;;;;6.10;4.45;;;;;;;;;;4996447;28;20182;-81
2021/10/03 03:15:23;;;;;;;4.67;4.27;;;;;;;;;;4995633;28;20183;-81
2021/10/03 03:17:49;;;;;;;8.30;4.50;;;;;;;;;;5000051;28;20470;-82
2021/10/03 03:20:15;;;;;;;5.40;4.35;;;;;;;;;;5002161;28;20290;-82
2021/10/03 03:22:41;;;;;;;5.05;3.78;;;;;;;;;;4999575;28;20223;-82
2021/10/03 03:25:09;;;;;;;8.23;4.10;;;;;;;;;;5001322;28;20592;-81
2021/10/03 03:27:35;;;;;;;8.30;4.38;;;;;;;;;;4997828;28;20187;-80
2021/10/03 03:30:01;;;;;;;7.95;4.72;;;;;;;;;;4999982;28;20183;-81
2021/10/03 03:32:27;;;;;;;7.32;4.63;;;;;;;;;;4992262;28;20194;-81
2021/10/03 03:34:53;;;;;;;6.60;3.90;;;;;;;;;;4998759;28;20190;-86
2021/10/03 03:37:19;;;;;;;7.60;4.47;;;;;;;;;;5001106;28;20436;-84
2021/10/03 03:39:45;;;;;;;4.83;3.80;;;;;;;;;;5010049;28;20196;-81
2021/10/03 03:42:11;;;;;;;7.43;4.30;;;;;;;;;;4994971;28;20911;-81
2021/10/03 03:44:37;;;;;;;8.00;4.83;;;;;;;;;;5000922;28;20446;-84
2021/10/03 03:47:03;;;;;;;6.57;4.20;;;;;;;;;;4999881;28;20412;-82
2021/10/03 03:49:29;;;;;;;10.05;4.40;;;;;;;;;;5003201;28;20422;-83
2021/10/03 03:51:55;;;;;;;15.60;4.97;;;;;;;;;;4998727;28;20190;-82
2021/10/03 03:54:21;;;;;;;5.72;5.05;;;;;;;;;;5000496;28;20192;-82
2021/10/03 03:56:47;;;;;;;7.30;4.40;;;;;;;;;;5008873;28;20199;-82
2021/10/03 03:59:13;;;;;;;4.80;4.17;;;;;;;;;;5011798;28;20442;-80
2021/10/03 04:01:39;;;;;;;10.57;4.55;;;;;;;;;;4999493;28;20402;-82
2021/10/03 04:04:05;;;;;;;12.13;4.70;;;;;;;;;;4999916;28;20182;-81
2021/10/03 04:06:31;;;;;;;9.15;4.63;;;;;;;;;;5002542;28;20261;-84
2021/10/03 04:08:57;;;;;;;13.63;5.40;;;;;;;;;;4999501;28;20945;-83
2021/10/03 04:11:23;;;;;;;10.10;5.03;;;;;;;;;;4999608;28;20467;-85
2021/10/03 04:13:49;;;;;;;9.07;5.10;;;;;;;;;;5002756;28;20192;-82
2021/10/03 04:16:15;;;;;;;27.07;7.20;;;;;;;;;;5000675;28;20237;-83
2021/10/03 04:18:41;;;;;;;10.13;4.78;;;;;;;;;;4997334;28;20612;-84
2021/10/03 04:21:07;;;;;;;17.55;5.20;;;;;;;;;;4999224;28;20298;-84
2021/10/03 04:23:33;;;;;;;14.73;5.80;;;;;;;;;;4996147;28;20191;-84
2021/10/03 04:26:00;;;;;;;8.80;5.73;;;;;;;;;;4996453;28;20319;-88
2021/10/03 04:28:26;;;;;;;7.32;4.72;;;;;;;;;;5002183;28;20444;-84
2021/10/03 04:30:55;;;;;;;8.90;5.40;;;;;;;;;;4996952;28;20172;-85
2021/10/03 04:33:21;;;;;;;6.85;2.75;;;;;;;;;;4996590;28;20445;-83
2021/10/03 04:35:48;;;;;;;2.00;1.20;;;;;;;;;;4999590;28;20191;-85
2021/10/03 04:38:14;;;;;;;77.70;7.50;;;;;;;;;;5000435;28;20198;-86
2021/10/03 04:40:40;;;;;;;0.40;0.40;;;;;;;;;;5001164;28;20221;-83
2021/10/03 04:43:06;;;;;;;0.40;0.30;;;;;;;;;;4998516;28;20198;-86
2021/10/03 04:45:32;;;;;;;0.40;0.40;;;;;;;;;;4998719;28;20279;-84
2021/10/03 04:48:02;;;;;;;0.40;0.30;;;;;;;;;;5002592;28;20192;-81
2021/10/03 04:50:28;;;;;;;0.40;0.40;;;;;;;;;;4993290;28;20180;-81
2021/10/03 04:52:54;;;;;;;0.40;0.40;;;;;;;;;;5005877;28;20243;-83
2021/10/03 04:55:20;;;;;;;0.40;0.40;;;;;;;;;;5001304;28;20183;-83
2021/10/03 04:57:47;;;;;;;0.40;0.35;;;;;;;;;;5001843;28;20430;-88
2021/10/03 05:00:13;;;;;;;0.40;0.40;;;;;;;;;;4998935;28;20219;-90
2021/10/03 05:02:39;;;;;;;0.40;0.30;;;;;;;;;;5001261;28;20193;-87
2021/10/03 05:05:06;;;;;;;0.40;0.40;;;;;;;;;;5009338;28;20709;-88
2021/10/03 05:07:32;;;;;;;0.40;0.40;;;;;;;;;;5000218;28;20198;-85
2021/10/03 05:09:58;;;;;;;0.40;0.40;;;;;;;;;;4999171;28;20179;-85
2021/10/03 05:12:24;;;;;;;0.40;0.40;;;;;;;;;;5003229;28;21010;-85
2021/10/03 05:14:50;;;;;;;0.40;0.40;;;;;;;;;;4991988;28;20213;-89
2021/10/03 05:17:16;;;;;;;0.40;0.40;;;;;;;;;;5003309;28;20487;-88
2021/10/03 05:19:42;;;;;;;0.40;0.40;;;;;;;;;;4986778;28;20208;-88
2021/10/03 05:22:08;;;;;;;0.40;0.40;;;;;;;;;;5010842;28;20420;-88
2021/10/03 05:24:34;;;;;;;0.40;0.40;;;;;;;;;;4998913;28;20262;-88
2021/10/03 05:27:00;;;;;;;0.40;0.40;;;;;;;;;;4999917;28;20185;-88
2021/10/03 05:29:26;;;;;;;0.40;0.40;;;;;;;;;;4999404;28;20228;-88
2021/10/03 05:31:52;;;;;;;0.40;0.33;;;;;;;;;;5000306;28;20302;-89
2021/10/03 05:34:19;;;;;;;0.40;0.40;;;;;;;;;;5000373;28;20445;-89
2021/10/03 05:36:45;;;;;;;0.40;0.40;;;;;;;;;;4998881;28;20453;-89
2021/10/03 05:39:11;;;;;;;0.40;0.40;;;;;;;;;;5001130;28;20226;-90
2021/10/03 05:41:37;;;;;;;0.40;0.40;;;;;;;;;;5000282;28;20210;-91
2021/10/03 05:44:04;;;;;;;0.40;0.40;;;;;;;;;;5002884;28;20442;-92
2021/10/03 05:46:30;;;;;;;0.40;0.40;;;;;;;;;;4998892;28;20474;-92
2021/10/03 05:48:56;;;;;;;0.40;0.40;;;;;;;;;;5003682;28;20226;-91
2021/10/03 05:51:22;;;;;;;0.40;0.40;;;;;;;;;;4999827;28;20198;-90
2021/10/03 05:53:51;;;;;;;0.40;0.40;;;;;;;;;;4998848;28;20606;-90
2021/10/03 05:56:20;;;;;;;0.40;0.30;;;;;;;;;;5001431;28;20215;-91
2021/10/03 05:58:46;;;;;;;0.40;0.40;;;;;;;;;;4996322;28;20214;-91
2021/10/03 06:01:13;;;;;;;0.40;0.40;;;;;;;;;;4998895;28;20204;-91
2021/10/03 06:03:39;;;;;;;0.40;0.40;;;;;;;;;;4995980;28;20195;-89
2021/10/03 06:06:05;;;;;;;0.40;0.40;;;;;;;;;;4999487;28;20184;-89
2021/10/03 06:08:31;;;;;;;0.40;0.40;;;;;;;;;;4998967;28;20387;-89
2021/10/03 06:11:00;;;;;;;0.40;0.40;;;;;;;;;;4999095;28;20189;-88
2021/10/03 06:13:26;;;;;;;0.40;0.40;;;;;;;;;;4998045;28;20250;-89
2021/10/03 06:15:54;;;;;;;0.40;0.30;;;;;;;;;;5000364;28;20197;-90
2021/10/03 06:18:21;;;;;;;0.40;0.40;;;;;;;;;;4996545;28;20191;-87
2021/10/03 06:20:47;;;;;;;0.40;0.40;;;;;;;;;;4997363;28;20218;-86
2021/10/03 06:23:15;;;;;;;0.40;0.40;;;;;;;;;;5001108;28;20187;-87
2021/10/03 06:25:41;;;;;;;0.40;0.40;;;;;;;;;;4994611;28;20195;-87
2021/10/03 06:28:07;;;;;;;0.40;0.40;;;;;;;;;;5004296;28;20214;-87
2021/10/03 06:30:33;;;;;;;0.40;0.35;;;;;;;;;;5001702;28;20188;-85
2021/10/03 06:33:00;;;;;;;0.40;0.40;;;;;;;;;;4998754;28;20189;-86
2021/10/03 06:35:27;;;;;;;0.40;0.40;;;;;;;;;;5003773;28;20688;-88
2021/10/03 06:37:53;;;;;;;0.40;0.40;;;;;;;;;;4996726;28;20253;-88
2021/10/03 06:40:19;;;;;;;0.40;0.40;;;;;;;;;;5009283;28;20210;-87
2021/10/03 06:42:45;;;;;;;0.40;0.37;;;;;;;;;;4999476;28;20187;-85
2021/10/03 06:45:11;;;;;;;0.40;0.40;;;;;;;;;;4999855;28;20440;-85
2021/10/03 06:47:37;;;;;;;0.40;0.38;;;;;;;;;;4998617;28;20200;-85
2021/10/03 06:50:04;;;;;;;0.40;0.40;;;;;;;;;;4996670;28;20220;-84
2021/10/03 06:52:31;;;;;;;0.40;0.30;;;;;;;;;;4993724;28;20252;-85
2021/10/03 06:54:57;;;;;;;0.40;0.40;;;;;;;;;;4995652;28;20190;-85
2021/10/03 06:57:23;;;;;;;0.40;0.40;;;;;;;;;;4994266;28;20256;-85
2021/10/03 06:59:49;;;;;;;0.40;0.40;;;;;;;;;;4999628;28;20203;-87
2021/10/03 07:02:23;;;;;;;0.40;0.40;;;;;;;;;;5006774;28;20212;-87
2021/10/03 07:04:49;;;;;;;0.40;0.38;;;;;;;;;;5006152;28;20392;-86
2021/10/03 07:07:16;;;;;;;0.40;0.40;;;;;;;;;;4997634;28;20395;-86
2021/10/03 07:09:42;;;;;;;0.40;0.30;;;;;;;;;;4998913;28;20468;-85
2021/10/03 07:12:08;;;;;;;0.40;0.40;;;;;;;;;;4996795;28;20189;-84
2021/10/03 07:14:34;;;;;;;0.40;0.30;;;;;;;;;;5001975;28;20262;-87
2021/10/03 07:17:00;;;;;;;0.40;0.38;;;;;;;;;;4998688;28;20271;-84
2021/10/03 07:19:26;;;;;;;0.40;0.40;;;;;;;;;;5003503;28;20267;-84
2021/10/03 07:21:52;;;;;;;0.40;0.40;;;;;;;;;;4997343;28;20182;-86
2021/10/03 07:24:18;;;;;;;0.40;0.40;;;;;;;;;;5000117;28;20200;-86
2021/10/03 07:26:44;;;;;;;0.40;0.40;;;;;;;;;;5002584;28;20189;-86
2021/10/03 07:29:11;;;;;;;0.40;0.40;;;;;;;;;;4997492;28;20201;-86
2021/10/03 07:31:37;;;;;;;0.40;0.40;;;;;;;;;;5002268;28;20170;-87
2021/10/03 07:34:03;;;;;;;0.40;0.30;;;;;;;;;;4997060;28;20662;-86
2021/10/03 07:36:29;;;;;;;0.40;0.40;;;;;;;;;;5000378;28;20463;-87
2021/10/03 07:38:55;;;;;;;0.40;0.30;;;;;;;;;;5000581;28;20205;-86
2021/10/03 07:41:21;;;;;;;0.40;0.40;;;;;;;;;;4995398;28;20476;-86
2021/10/03 07:43:48;;;;;;;0.40;0.40;;;;;;;;;;4999636;28;20453;-85
2021/10/03 07:46:16;;;;;;;0.40;0.30;;;;;;;;;;4995770;28;20175;-86
2021/10/03 07:48:42;;;;;;;0.40;0.40;;;;;;;;;;5007339;28;20648;-85
2021/10/03 07:51:10;;;;;;;0.40;0.40;;;;;;;;;;5002358;28;20214;-86
2021/10/03 07:53:36;;;;;;;0.40;0.30;;;;;;;;;;5001181;28;20198;-86
2021/10/03 07:56:02;;;;;;;0.40;0.40;;;;;;;;;;5000737;28;20214;-88
2021/10/03 07:58:28;;;;;;;0.40;0.40;;;;;;;;;;4992984;28;20491;-87
2021/10/03 08:00:54;;;;;;;0.40;0.35;;;;;;;;;;5014978;28;20458;-88
2021/10/03 08:03:21;;;;;;;0.40;0.40;;;;;;;;;;4998912;28;20651;-86
2021/10/03 08:05:47;;;;;;;0.40;0.30;;;;;;;;;;4999606;28;20439;-86
2021/10/03 08:08:13;;;;;;;0.40;0.40;;;;;;;;;;5000516;28;20202;-86
2021/10/03 08:10:39;;;;;;;0.40;0.40;;;;;;;;;;4997902;28;20179;-85
2021/10/03 08:13:05;;;;;;;0.40;0.40;;;;;;;;;;5001671;28;20430;-85
2021/10/03 08:15:31;;;;;;;0.40;0.32;;;;;;;;;;4997689;28;20186;-85
2021/10/03 08:17:57;;;;;;;0.40;0.40;;;;;;;;;;5006874;28;20215;-86
2021/10/03 08:20:24;;;;;;;0.40;0.40;;;;;;;;;;4990569;28;20210;-84
2021/10/03 08:22:50;;;;;;;0.40;0.40;;;;;;;;;;5009494;28;20513;-85
2021/10/03 08:25:17;;;;;;;0.50;0.50;;;;;;;;;;4997202;28;20177;-86
2021/10/03 08:27:43;;;;;;;0.40;0.40;;;;;;;;;;5013736;28;20186;-83
2021/10/03 08:30:09;;;;;;;0.40;0.40;;;;;;;;;;4996085;28;20206;-83
2021/10/03 08:32:36;;;;;;;0.40;0.40;;;;;;;;;;5000542;28;20205;-84
2021/10/03 08:35:02;;;;;;;0.40;0.40;;;;;;;;;;4998808;28;20190;-84
2021/10/03 08:37:28;;;;;;;0.40;0.30;;;;;;;;;;4999220;28;20190;-84
2021/10/03 08:39:54;;;;;;;0.40;0.40;;;;;;;;;;5019086;28;20210;-84
2021/10/03 08:42:20;;;;;;;0.40;0.40;;;;;;;;;;4999021;28;20196;-84
2021/10/03 08:44:47;;;;;;;0.40;0.30;;;;;;;;;;5013676;28;20186;-85
2021/10/03 08:47:13;;;;;;;0.40;0.40;;;;;;;;;;5001743;28;20415;-84
2021/10/03 08:49:39;;;;;;;0.40;0.40;;;;;;;;;;5001957;28;20236;-83
2021/10/03 08:52:06;;;;;;;0.40;0.40;;;;;;;;;;5002494;28;20189;-84
2021/10/03 08:54:39;;;;;;;0.40;0.40;;;;;;;;;;5002894;28;20250;-84
2021/10/03 08:57:05;;;;;;;0.40;0.40;;;;;;;;;;5002778;28;20186;-85
2021/10/03 08:59:32;;;;;;;0.40;0.40;;;;;;;;;;5000500;28;20248;-84
2021/10/03 09:01:58;;;;;;;0.40;0.40;;;;;;;;;;5001300;28;20555;-87
2021/10/03 09:04:34;;;;;;;0.40;0.40;;;;;;;;;;5005267;28;20217;-87
2021/10/03 09:07:11;;;;;;;0.40;0.30;;;;;;;;;;5017782;28;20175;-86
2021/10/03 09:09:57;;;;;;;0.40;0.40;;;;;;;;;;5002593;28;20220;-86
2021/10/03 09:12:39;;;;;;;0.40;0.40;;;;;;;;;;5012949;28;20198;-86
2021/10/03 09:15:13;;;;;;;0.40;0.40;;;;;;;;;;5001739;28;20186;-86
2021/10/03 09:17:39;;;;;;;0.40;0.40;;;;;;;;;;4999665;28;20757;-84
2021/10/03 09:20:13;;;;;;;0.40;0.40;;;;;;;;;;5014790;28;20195;-83
2021/10/03 09:22:58;;;;;;;0.40;0.40;;;;;;;;;;4997367;28;20182;-85
2021/10/03 09:25:30;;;;;;;0.40;0.40;;;;;;;;;;5016049;28;20185;-83
2021/10/03 09:27:56;;;;;;;0.40;0.40;;;;;;;;;;4998346;28;20190;-83
2021/10/03 09:30:22;;;;;;;0.40;0.40;;;;;;;;;;5002476;28;20220;-83
2021/10/03 09:32:55;;;;;;;0.40;0.40;;;;;;;;;;4999162;28;20187;-82
2021/10/03 09:35:22;;;;;;;0.40;0.40;;;;;;;;;;4985952;28;20216;-82
2021/10/03 09:37:47;;;;;;;0.40;0.40;;;;;;;;;;5016684;28;20184;-82
2021/10/03 09:40:18;;;;;;;0.40;0.40;;;;;;;;;;4999767;28;20770;-87
2021/10/03 09:43:03;;;;;;;0.40;0.40;;;;;;;;;;4995749;28;20473;-83
2021/10/03 09:45:30;;;;;;;0.40;0.40;;;;;;;;;;5001100;28;20181;-83
2021/10/03 09:48:00;;;;;;;0.40;0.40;;;;;;;;;;5001879;28;20191;-85
2021/10/03 09:50:26;;;;;;;0.40;0.40;;;;;;;;;;5001609;28;20195;-86
2021/10/03 09:52:52;;;;;;;0.40;0.40;;;;;;;;;;5001636;28;20195;-82
2021/10/03 09:55:19;;;;;;;0.40;0.40;;;;;;;;;;5005764;28;20179;-82
2021/10/03 09:57:45;;;;;;;0.40;0.40;;;;;;;;;;5004894;28;20202;-85
2021/10/03 10:00:15;;;;;;;0.40;0.40;;;;;;;;;;4999915;28;20203;-83
2021/10/03 10:02:41;;;;;;;0.40;0.40;;;;;;;;;;5001784;28;20213;-82
2021/10/03 10:05:08;;;;;;;0.40;0.40;;;;;;;;;;5016541;28;20202;-82
2021/10/03 10:07:34;;;;;;;0.40;0.40;;;;;;;;;;5001786;28;20712;-83
2021/10/03 10:10:00;;;;;;;0.40;0.40;;;;;;;;;;4999562;28;20267;-86
2021/10/03 10:12:27;;;;;;;0.40;0.40;;;;;;;;;;4993110;28;20195;-83
2021/10/03 10:15:10;;;;;;;0.40;0.30;;;;;;;;;;4998744;28;20190;-81
2021/10/03 10:17:40;;;;;;;0.40;0.40;;;;;;;;;;4997592;28;20660;-83
2021/10/03 10:20:09;;;;;;;0.40;0.40;;;;;;;;;;4989299;28;20633;-85
2021/10/03 10:22:36;;;;;;;0.40;0.40;;;;;;;;;;5002582;28;20190;-80
2021/10/03 10:25:16;;;;;;;0.40;0.40;;;;;;;;;;5001166;28;20262;-86
2021/10/03 10:27:45;;;;;;;0.40;0.40;;;;;;;;;;5001258;28;20200;-79
2021/10/03 10:30:15;;;;;;;0.40;0.40;;;;;;;;;;5000197;28;20191;-87
2021/10/03 10:32:56;;;;;;;0.40;0.40;;;;;;;;;;4991547;28;20198;-81
2021/10/03 10:35:22;;;;;;;0.40;0.40;;;;;;;;;;4998762;28;20179;-80
2021/10/03 10:40:23;;;;;;;0.40;0.30;;;;;;;;;;5000442;28;20481;-89
2021/10/03 10:42:54;;;;;;;0.40;0.40;;;;;;;;;;5005064;28;20179;-87
2021/10/03 10:45:50;;;;;;;0.40;0.40;;;;;;;;;;5002203;28;20268;-84
2021/10/03 10:48:16;;;;;;;0.40;0.40;;;;;;;;;;5003529;28;20183;-80
2021/10/03 10:50:47;;;;;;;0.40;0.40;;;;;;;;;;5002844;28;20238;-80
2021/10/03 10:53:20;;;;;;;0.40;0.40;;;;;;;;;;5005066;28;20566;-79
2021/10/03 10:56:01;;;;;;;0.40;0.40;;;;;;;;;;4990314;28;20184;-85
2021/10/03 10:58:27;;;;;;;0.40;0.40;;;;;;;;;;5002887;28;20179;-80
2021/10/03 11:00:57;;;;;;;0.40;0.40;;;;;;;;;;5003798;28;20372;-80
2021/10/03 11:03:43;;;;;;;0.40;0.40;;;;;;;;;;5006657;28;20206;-80
2021/10/03 11:06:13;;;;;;;0.40;0.40;;;;;;;;;;5007723;28;20184;-81
2021/10/03 11:09:00;;;;;;;0.40;0.40;;;;;;;;;;5009588;28;20190;-89
2021/10/03 11:11:33;;;;;;;0.40;0.40;;;;;;;;;;5004253;28;20211;-87
2021/10/03 11:14:01;;;;;;;0.40;0.40;;;;;;;;;;5003967;28;20192;-84
2021/10/03 11:16:31;;;;;;;0.40;0.40;;;;;;;;;;5006456;28;20298;-81
2021/10/03 11:18:58;;;;;;;0.40;0.40;;;;;;;;;;5003458;28;20322;-82
2021/10/03 11:21:32;;;;;;;0.40;0.40;;;;;;;;;;5003917;28;20334;-84
2021/10/03 11:24:00;;;;;;;0.40;0.40;;;;;;;;;;5000498;28;20191;-82
2021/10/03 11:26:26;;;;;;;0.40;0.40;;;;;;;;;;5004355;28;20185;-81
2021/10/03 11:28:52;;;;;;;0.40;0.40;;;;;;;;;;5002641;28;20199;-82
2021/10/03 11:31:57;;;;;;;1.08;1.08;;;;;;;;;;5017319;28;20303;-84
2021/10/03 11:34:29;;;;;;;0.40;0.40;;;;;;;;;;4942961;29;20216;-82
2021/10/03 11:36:55;;;;;;;0.40;0.40;;;;;;;;;;4946405;29;20191;-84
2021/10/03 11:39:40;;;;;;;0.40;0.40;;;;;;;;;;4924130;29;20219;-82
2021/10/03 11:42:08;;;;;;;0.40;0.40;;;;;;;;;;4940393;29;20187;-83
2021/10/03 11:44:35;;;;;;;0.40;0.40;;;;;;;;;;4929359;29;20198;-82
2021/10/03 11:47:05;;;;;;;0.40;0.40;;;;;;;;;;4945490;29;20265;-82
2021/10/03 11:49:33;;;;;;;0.40;0.40;;;;;;;;;;4942886;29;20205;-80
2021/10/03 11:51:59;;;;;;;0.40;0.40;;;;;;;;;;4928811;29;20265;-83
2021/10/03 11:54:54;;;;;;;0.40;0.40;;;;;;;;;;4923822;29;20189;-83
2021/10/03 11:57:21;;;;;;;0.40;0.40;;;;;;;;;;4930612;29;20221;-82
2021/10/03 11:59:48;;;;;;;0.40;0.40;;;;;;;;;;4941764;29;20275;-82
2021/10/03 12:02:15;;;;;;;0.50;0.40;;;;;;;;;;4944361;29;20189;-82
2021/10/03 12:04:55;;;;;;;0.40;0.40;;;;;;;;;;4964344;28;20991;-85
2021/10/03 12:07:21;;;;;;;0.40;0.40;;;;;;;;;;4998043;28;20169;-83
2021/10/03 12:10:05;;;;;;;0.73;0.73;;;;;;;;;;5003946;28;20183;-82
2021/10/03 12:12:43;;;;;;;0.40;0.40;;;;;;;;;;5004372;28;20257;-82
2021/10/03 12:15:10;;;;;;;0.40;0.40;;;;;;;;;;5003979;28;20186;-82
2021/10/03 12:17:49;;;;;;;0.40;0.40;;;;;;;;;;5003984;28;20258;-84
2021/10/03 12:20:15;;;;;;;0.40;0.40;;;;;;;;;;5003069;28;20206;-82
2021/10/03 12:22:54;;;;;;;0.40;0.40;;;;;;;;;;5004268;28;20179;-82
2021/10/03 12:25:20;;;;;;;0.40;0.40;;;;;;;;;;5000878;28;20974;-83
2021/10/03 12:27:58;;;;;;;0.40;0.40;;;;;;;;;;5002105;28;20183;-85
2021/10/03 12:30:24;;;;;;;0.40;0.40;;;;;;;;;;5002735;28;20190;-88
2021/10/03 12:33:03;;;;;;;0.40;0.40;;;;;;;;;;5002549;28;20182;-85
2021/10/03 12:35:29;;;;;;;0.40;0.40;;;;;;;;;;4998716;28;20208;-83
2021/10/03 12:37:55;;;;;;;0.40;0.40;;;;;;;;;;5002158;28;20191;-84
2021/10/03 12:40:22;;;;;;;0.40;0.40;;;;;;;;;;5001985;28;20234;-87
2021/10/03 12:42:48;;;;;;;0.40;0.40;;;;;;;;;;5003508;28;20261;-86
2021/10/03 12:45:16;;;;;;;0.40;0.40;;;;;;;;;;5002364;28;20198;-85
2021/10/03 12:47:42;;;;;;;0.40;0.40;;;;;;;;;;5003263;28;20185;-86
2021/10/03 12:50:09;;;;;;;0.40;0.40;;;;;;;;;;5000914;28;20198;-84
2021/10/03 12:52:35;;;;;;;0.40;0.40;;;;;;;;;;5001813;28;20252;-86
2021/10/03 12:55:01;;;;;;;0.40;0.40;;;;;;;;;;5000062;28;20179;-85
2021/10/03 12:57:27;;;;;;;0.40;0.40;;;;;;;;;;4998834;28;20474;-86
2021/10/03 12:59:53;;;;;;;0.40;0.40;;;;;;;;;;5000273;28;20210;-87
2021/10/03 13:02:19;;;;;;;0.40;0.40;;;;;;;;;;5015557;28;20198;-85
2021/10/03 13:04:45;;;;;;;0.40;0.40;;;;;;;;;;4993385;28;20194;-83
2021/10/03 13:07:11;;;;;;;0.40;0.40;;;;;;;;;;5003020;28;20453;-85
2021/10/03 13:09:37;;;;;;;0.40;0.40;;;;;;;;;;4986931;28;20477;-84
2021/10/03 13:12:03;;;;;;;0.40;0.40;;;;;;;;;;5000047;28;20191;-84
2021/10/03 13:14:29;;;;;;;0.40;0.40;;;;;;;;;;4990983;28;20653;-85
2021/10/03 13:16:55;;;;;;;0.40;0.40;;;;;;;;;;5001551;28;20243;-84
2021/10/03 13:19:22;;;;;;;0.40;0.40;;;;;;;;;;5004288;28;20186;-86
2021/10/03 13:21:48;;;;;;;0.40;0.40;;;;;;;;;;5014527;28;20177;-83
2021/10/03 13:24:15;;;;;;;0.40;0.40;;;;;;;;;;5000286;28;20183;-83
2021/10/03 13:26:41;;;;;;;0.40;0.40;;;;;;;;;;5003343;28;20182;-85
2021/10/03 13:29:07;;;;;;;0.40;0.40;;;;;;;;;;5002277;28;20182;-85
2021/10/03 13:31:33;;;;;;;0.40;0.40;;;;;;;;;;5001371;28;20247;-88
2021/10/03 13:34:00;;;;;;;0.40;0.40;;;;;;;;;;5004963;28;20187;-92
2021/10/03 13:36:26;;;;;;;0.40;0.40;;;;;;;;;;5000174;28;20526;-87
2021/10/03 13:38:53;;;;;;;0.40;0.40;;;;;;;;;;4996511;28;20187;-86
2021/10/03 13:41:19;;;;;;;0.40;0.40;;;;;;;;;;5000914;28;20572;-85
2021/10/03 13:43:47;;;;;;;0.40;0.40;;;;;;;;;;5000201;28;20235;-91
2021/10/03 13:46:13;;;;;;;0.40;0.40;;;;;;;;;;5003654;28;20179;-85
2021/10/03 13:48:40;;;;;;;0.40;0.40;;;;;;;;;;4998158;28;20468;-88
2021/10/03 13:51:06;;;;;;;0.40;0.40;;;;;;;;;;4993883;28;20218;-85
2021/10/03 13:53:32;;;;;;;0.40;0.40;;;;;;;;;;4995363;28;20214;-88
2021/10/03 13:55:58;;;;;;;0.40;0.40;;;;;;;;;;5001034;28;20470;-88
2021/10/03 13:58:25;;;;;;;0.40;0.40;;;;;;;;;;5003838;28;20236;-86
2021/10/03 14:00:51;;;;;;;0.40;0.40;;;;;;;;;;5001960;28;20199;-85
2021/10/03 14:03:17;;;;;;;0.40;0.40;;;;;;;;;;5003179;28;20186;-92
2021/10/03 14:05:43;;;;;;;0.50;0.40;;;;;;;;;;4998552;28;20450;-90
2021/10/03 14:08:09;;;;;;;0.40;0.40;;;;;;;;;;4998799;28;20435;-90
2021/10/03 14:10:35;;;;;;;0.50;0.50;;;;;;;;;;5001224;28;20229;-93
2021/10/03 14:13:01;;;;;;;0.40;0.40;;;;;;;;;;4991135;28;20183;-91
2021/10/03 14:15:27;;;;;;;0.40;0.40;;;;;;;;;;4997615;28;20254;-92
2021/10/03 14:17:53;;;;;;;2.30;2.20;;;;;;;;;;5000228;28;20466;-81
2021/10/03 14:20:21;;;;;;;0.40;0.40;;;;;;;;;;4999475;28;20467;-91
2021/10/03 14:22:47;;;;;;;0.40;0.40;;;;;;;;;;4990523;28;20218;-91
2021/10/03 14:25:13;;;;;;;0.40;0.40;;;;;;;;;;5003418;28;20179;-92
2021/10/03 14:27:39;;;;;;;0.40;0.40;;;;;;;;;;5002508;28;20193;-89
2021/10/03 14:30:06;;;;;;;0.40;0.40;;;;;;;;;;4999343;28;20302;-84
2021/10/03 14:32:32;;;;;;;0.40;0.40;;;;;;;;;;4991092;28;20525;-91
2021/10/03 14:34:58;;;;;;;0.40;0.40;;;;;;;;;;5000934;28;20184;-91
2021/10/03 14:37:24;;;;;;;0.40;0.40;;;;;;;;;;5002697;28;20175;-88
2021/10/03 14:39:50;;;;;;;0.40;0.40;;;;;;;;;;5003099;28;20198;-90
2021/10/03 14:42:16;;;;;;;0.40;0.40;;;;;;;;;;4999057;28;20439;-90
2021/10/03 14:44:42;;;;;;;0.40;0.40;;;;;;;;;;4997541;28;20220;-89
2021/10/03 14:47:08;;;;;;;0.40;0.40;;;;;;;;;;5002556;28;20502;-91